sensor_id;sensor_type;location;lat;lon;timestamp;temperature;humidity
46488;DHT22;32202;48.780;9.204;2023-03-01T00:01:38;0.70;81.30
46488;DHT22;32202;48.780;9.204;2023-03-01T00:04:04;0.70;81.40
46488;DHT22;32202;48.780;9.204;2023-03-01T00:06:29;0.80;80.90
46488;DHT22;32202;48.780;9.204;2023-03-01T00:08:55;0.70;80.90
46488;DHT22;32202;48.780;9.204;2023-03-01T00:11:27;0.80;81.20
46488;DHT22;32202;48.780;9.204;2023-03-01T00:13:54;0.80;80.90
46488;DHT22;32202;48.780;9.204;2023-03-01T00:16:22;0.80;81.10
46488;DHT22;32202;48.780;9.204;2023-03-01T00:18:47;0.70;81.90
46488;DHT22;32202;48.780;9.204;2023-03-01T00:21:13;0.60;82.20
46488;DHT22;32202;48.780;9.204;2023-03-01T00:23:39;0.60;82.70
46488;DHT22;32202;48.780;9.204;2023-03-01T00:26:05;0.60;82.80
46488;DHT22;32202;48.780;9.204;2023-03-01T00:28:31;0.60;82.50
46488;DHT22;32202;48.780;9.204;2023-03-01T00:31:02;0.50;83.00
46488;DHT22;32202;48.780;9.204;2023-03-01T00:33:27;0.50;83.00
46488;DHT22;32202;48.780;9.204;2023-03-01T00:35:53;0.50;83.20
46488;DHT22;32202;48.780;9.204;2023-03-01T00:38:18;0.50;83.50
46488;DHT22;32202;48.780;9.204;2023-03-01T00:40:44;0.50;83.30
46488;DHT22;32202;48.780;9.204;2023-03-01T00:43:09;0.40;83.60
46488;DHT22;32202;48.780;9.204;2023-03-01T00:45:35;0.40;84.00
46488;DHT22;32202;48.780;9.204;2023-03-01T00:48:00;0.40;83.90
46488;DHT22;32202;48.780;9.204;2023-03-01T00:50:26;0.30;84.00
46488;DHT22;32202;48.780;9.204;2023-03-01T00:52:52;0.30;84.40
46488;DHT22;32202;48.780;9.204;2023-03-01T00:55:17;0.30;84.30
46488;DHT22;32202;48.780;9.204;2023-03-01T00:57:43;0.40;84.20
46488;DHT22;32202;48.780;9.204;2023-03-01T01:00:08;0.50;89.70
46488;DHT22;32202;48.780;9.204;2023-03-01T01:02:36;0.50;85.60
46488;DHT22;32202;48.780;9.204;2023-03-01T01:05:02;0.50;85.10
46488;DHT22;32202;48.780;9.204;2023-03-01T01:07:28;0.40;84.80
46488;DHT22;32202;48.780;9.204;2023-03-01T01:09:53;0.30;85.10
46488;DHT22;32202;48.780;9.204;2023-03-01T01:12:19;0.30;85.70
46488;DHT22;32202;48.780;9.204;2023-03-01T01:14:44;0.30;85.80
46488;DHT22;32202;48.780;9.204;2023-03-01T01:17:10;0.30;85.70
46488;DHT22;32202;48.780;9.204;2023-03-01T01:19:35;0.30;86.00
46488;DHT22;32202;48.780;9.204;2023-03-01T01:22:01;0.20;86.30
46488;DHT22;32202;48.780;9.204;2023-03-01T01:24:26;0.20;86.30
46488;DHT22;32202;48.780;9.204;2023-03-01T01:26:52;0.20;86.30
46488;DHT22;32202;48.780;9.204;2023-03-01T01:29:17;0.20;86.40
46488;DHT22;32202;48.780;9.204;2023-03-01T01:31:43;0.20;86.30
46488;DHT22;32202;48.780;9.204;2023-03-01T01:34:12;0.10;86.30
46488;DHT22;32202;48.780;9.204;2023-03-01T01:36:38;0.10;86.40
46488;DHT22;32202;48.780;9.204;2023-03-01T01:39:03;0.10;86.70
46488;DHT22;32202;48.780;9.204;2023-03-01T01:41:29;0.10;86.70
46488;DHT22;32202;48.780;9.204;2023-03-01T01:44:15;0.10;86.30
46488;DHT22;32202;48.780;9.204;2023-03-01T01:46:44;0.10;86.60
46488;DHT22;32202;48.780;9.204;2023-03-01T01:51:40;0.10;87.00
46488;DHT22;32202;48.780;9.204;2023-03-01T01:54:20;0.20;87.00
46488;DHT22;32202;48.780;9.204;2023-03-01T01:56:51;0.20;86.90
46488;DHT22;32202;48.780;9.204;2023-03-01T01:59:18;0.40;86.30
46488;DHT22;32202;48.780;9.204;2023-03-01T02:01:44;0.40;85.80
46488;DHT22;32202;48.780;9.204;2023-03-01T02:04:09;0.50;85.30
46488;DHT22;32202;48.780;9.204;2023-03-01T02:06:42;0.60;84.90
46488;DHT22;32202;48.780;9.204;2023-03-01T02:09:14;0.70;84.50
46488;DHT22;32202;48.780;9.204;2023-03-01T02:11:40;0.80;83.90
46488;DHT22;32202;48.780;9.204;2023-03-01T02:14:06;0.90;83.40
46488;DHT22;32202;48.780;9.204;2023-03-01T02:16:31;1.00;82.70
46488;DHT22;32202;48.780;9.204;2023-03-01T02:18:57;1.00;82.40
46488;DHT22;32202;48.780;9.204;2023-03-01T02:23:48;1.10;81.90
46488;DHT22;32202;48.780;9.204;2023-03-01T02:26:21;1.20;81.50
46488;DHT22;32202;48.780;9.204;2023-03-01T02:28:49;1.30;81.00
46488;DHT22;32202;48.780;9.204;2023-03-01T02:31:16;1.40;80.90
46488;DHT22;32202;48.780;9.204;2023-03-01T02:34:00;1.40;80.50
46488;DHT22;32202;48.780;9.204;2023-03-01T02:36:37;1.40;80.30
46488;DHT22;32202;48.780;9.204;2023-03-01T02:39:04;1.30;81.00
46488;DHT22;32202;48.780;9.204;2023-03-01T02:41:34;1.30;80.50
46488;DHT22;32202;48.780;9.204;2023-03-01T02:44:00;1.30;80.40
46488;DHT22;32202;48.780;9.204;2023-03-01T02:46:26;1.30;80.40
46488;DHT22;32202;48.780;9.204;2023-03-01T02:48:55;1.30;80.50
46488;DHT22;32202;48.780;9.204;2023-03-01T02:51:34;1.40;80.20
46488;DHT22;32202;48.780;9.204;2023-03-01T02:56:31;1.50;79.70
46488;DHT22;32202;48.780;9.204;2023-03-01T02:58:56;1.50;79.50
46488;DHT22;32202;48.780;9.204;2023-03-01T03:01:26;1.50;79.50
46488;DHT22;32202;48.780;9.204;2023-03-01T03:04:11;1.50;79.90
46488;DHT22;32202;48.780;9.204;2023-03-01T03:06:42;1.50;79.90
46488;DHT22;32202;48.780;9.204;2023-03-01T03:09:08;1.50;79.70
46488;DHT22;32202;48.780;9.204;2023-03-01T03:11:33;1.50;79.40
46488;DHT22;32202;48.780;9.204;2023-03-01T03:13:59;1.50;79.40
46488;DHT22;32202;48.780;9.204;2023-03-01T03:16:24;1.50;79.40
46488;DHT22;32202;48.780;9.204;2023-03-01T03:18:50;1.50;80.00
46488;DHT22;32202;48.780;9.204;2023-03-01T03:21:16;1.50;80.00
46488;DHT22;32202;48.780;9.204;2023-03-01T03:23:42;1.50;80.20
46488;DHT22;32202;48.780;9.204;2023-03-01T03:26:08;1.50;80.00
46488;DHT22;32202;48.780;9.204;2023-03-01T03:28:34;1.50;80.20
46488;DHT22;32202;48.780;9.204;2023-03-01T03:30:59;1.50;80.40
46488;DHT22;32202;48.780;9.204;2023-03-01T03:33:32;1.60;80.40
46488;DHT22;32202;48.780;9.204;2023-03-01T03:35:57;1.60;80.00
46488;DHT22;32202;48.780;9.204;2023-03-01T03:38:23;1.80;80.30
46488;DHT22;32202;48.780;9.204;2023-03-01T03:40:54;1.90;80.60
46488;DHT22;32202;48.780;9.204;2023-03-01T03:43:26;1.90;81.50
46488;DHT22;32202;48.780;9.204;2023-03-01T03:45:51;1.90;79.80
46488;DHT22;32202;48.780;9.204;2023-03-01T03:48:17;2.00;80.30
46488;DHT22;32202;48.780;9.204;2023-03-01T03:50:46;2.00;79.50
46488;DHT22;32202;48.780;9.204;2023-03-01T03:53:12;2.10;79.80
46488;DHT22;32202;48.780;9.204;2023-03-01T03:55:38;2.10;80.00
46488;DHT22;32202;48.780;9.204;2023-03-01T03:58:07;2.10;80.60
46488;DHT22;32202;48.780;9.204;2023-03-01T04:00:40;2.20;79.50
46488;DHT22;32202;48.780;9.204;2023-03-01T04:03:07;2.20;79.90
46488;DHT22;32202;48.780;9.204;2023-03-01T04:05:32;2.20;79.00
46488;DHT22;32202;48.780;9.204;2023-03-01T04:07:58;2.20;78.50
46488;DHT22;32202;48.780;9.204;2023-03-01T04:10:27;2.30;78.60
46488;DHT22;32202;48.780;9.204;2023-03-01T04:12:52;2.30;78.20
46488;DHT22;32202;48.780;9.204;2023-03-01T04:15:18;2.20;78.40
46488;DHT22;32202;48.780;9.204;2023-03-01T04:17:44;2.20;78.20
46488;DHT22;32202;48.780;9.204;2023-03-01T04:20:11;2.20;79.20
46488;DHT22;32202;48.780;9.204;2023-03-01T04:22:37;2.20;78.80
46488;DHT22;32202;48.780;9.204;2023-03-01T04:25:03;2.20;78.80
46488;DHT22;32202;48.780;9.204;2023-03-01T04:27:34;2.30;78.30
46488;DHT22;32202;48.780;9.204;2023-03-01T04:30:00;2.30;78.30
46488;DHT22;32202;48.780;9.204;2023-03-01T04:32:26;2.20;77.60
46488;DHT22;32202;48.780;9.204;2023-03-01T04:34:51;2.20;77.60
46488;DHT22;32202;48.780;9.204;2023-03-01T04:37:16;2.30;77.20
46488;DHT22;32202;48.780;9.204;2023-03-01T04:39:42;2.30;77.20
46488;DHT22;32202;48.780;9.204;2023-03-01T04:42:14;2.30;77.10
46488;DHT22;32202;48.780;9.204;2023-03-01T04:44:39;2.40;76.90
46488;DHT22;32202;48.780;9.204;2023-03-01T04:47:05;2.40;76.30
46488;DHT22;32202;48.780;9.204;2023-03-01T04:49:30;2.40;76.20
46488;DHT22;32202;48.780;9.204;2023-03-01T04:51:56;2.40;76.30
46488;DHT22;32202;48.780;9.204;2023-03-01T04:54:31;2.40;76.10
46488;DHT22;32202;48.780;9.204;2023-03-01T04:56:57;2.40;76.70
46488;DHT22;32202;48.780;9.204;2023-03-01T04:59:23;2.40;76.90
46488;DHT22;32202;48.780;9.204;2023-03-01T05:01:49;2.40;77.40
46488;DHT22;32202;48.780;9.204;2023-03-01T05:04:15;2.30;76.90
46488;DHT22;32202;48.780;9.204;2023-03-01T05:06:40;2.30;77.90
46488;DHT22;32202;48.780;9.204;2023-03-01T05:09:06;2.40;77.30
46488;DHT22;32202;48.780;9.204;2023-03-01T05:11:31;2.40;76.70
46488;DHT22;32202;48.780;9.204;2023-03-01T05:14:04;2.40;76.70
46488;DHT22;32202;48.780;9.204;2023-03-01T05:16:30;2.40;76.90
46488;DHT22;32202;48.780;9.204;2023-03-01T05:18:56;2.40;77.20
46488;DHT22;32202;48.780;9.204;2023-03-01T05:21:22;2.40;77.30
46488;DHT22;32202;48.780;9.204;2023-03-01T05:23:48;2.40;77.80
46488;DHT22;32202;48.780;9.204;2023-03-01T05:26:14;2.50;78.10
46488;DHT22;32202;48.780;9.204;2023-03-01T05:28:40;2.40;77.40
46488;DHT22;32202;48.780;9.204;2023-03-01T05:31:05;2.50;77.20
46488;DHT22;32202;48.780;9.204;2023-03-01T05:33:38;2.50;77.00
46488;DHT22;32202;48.780;9.204;2023-03-01T05:36:03;2.50;77.10
46488;DHT22;32202;48.780;9.204;2023-03-01T05:38:29;2.50;77.30
46488;DHT22;32202;48.780;9.204;2023-03-01T05:40:54;2.50;76.90
46488;DHT22;32202;48.780;9.204;2023-03-01T05:43:20;2.50;77.00
46488;DHT22;32202;48.780;9.204;2023-03-01T05:45:45;2.50;76.10
46488;DHT22;32202;48.780;9.204;2023-03-01T05:48:12;2.50;76.10
46488;DHT22;32202;48.780;9.204;2023-03-01T05:50:46;2.50;75.90
46488;DHT22;32202;48.780;9.204;2023-03-01T05:53:13;2.50;76.40
46488;DHT22;32202;48.780;9.204;2023-03-01T05:55:40;2.50;76.70
46488;DHT22;32202;48.780;9.204;2023-03-01T05:58:15;2.40;76.60
46488;DHT22;32202;48.780;9.204;2023-03-01T06:00:41;2.50;76.40
46488;DHT22;32202;48.780;9.204;2023-03-01T06:03:09;2.40;76.70
46488;DHT22;32202;48.780;9.204;2023-03-01T06:05:35;2.40;76.70
46488;DHT22;32202;48.780;9.204;2023-03-01T06:08:00;2.40;76.40
46488;DHT22;32202;48.780;9.204;2023-03-01T06:10:26;2.50;76.10
46488;DHT22;32202;48.780;9.204;2023-03-01T06:12:51;2.40;76.30
46488;DHT22;32202;48.780;9.204;2023-03-01T06:15:17;2.40;76.10
46488;DHT22;32202;48.780;9.204;2023-03-01T06:17:43;2.40;76.50
46488;DHT22;32202;48.780;9.204;2023-03-01T06:20:11;2.50;76.10
46488;DHT22;32202;48.780;9.204;2023-03-01T06:22:37;2.50;76.10
46488;DHT22;32202;48.780;9.204;2023-03-01T06:25:03;2.50;76.80
46488;DHT22;32202;48.780;9.204;2023-03-01T06:27:29;2.40;76.50
46488;DHT22;32202;48.780;9.204;2023-03-01T06:29:54;2.40;76.30
46488;DHT22;32202;48.780;9.204;2023-03-01T06:32:20;2.50;76.10
46488;DHT22;32202;48.780;9.204;2023-03-01T06:34:45;2.50;76.10
46488;DHT22;32202;48.780;9.204;2023-03-01T06:37:11;2.50;75.90
46488;DHT22;32202;48.780;9.204;2023-03-01T06:39:36;2.50;76.00
46488;DHT22;32202;48.780;9.204;2023-03-01T06:42:02;2.30;76.60
46488;DHT22;32202;48.780;9.204;2023-03-01T06:44:27;2.30;76.60
46488;DHT22;32202;48.780;9.204;2023-03-01T06:46:53;2.40;76.40
46488;DHT22;32202;48.780;9.204;2023-03-01T06:49:19;2.50;76.20
46488;DHT22;32202;48.780;9.204;2023-03-01T06:51:45;2.60;75.90
46488;DHT22;32202;48.780;9.204;2023-03-01T06:54:11;2.70;76.50
46488;DHT22;32202;48.780;9.204;2023-03-01T06:56:37;2.90;74.70
46488;DHT22;32202;48.780;9.204;2023-03-01T06:59:02;3.00;73.70
46488;DHT22;32202;48.780;9.204;2023-03-01T07:01:28;2.90;72.90
46488;DHT22;32202;48.780;9.204;2023-03-01T07:03:53;2.90;73.50
46488;DHT22;32202;48.780;9.204;2023-03-01T07:06:19;3.10;73.50
46488;DHT22;32202;48.780;9.204;2023-03-01T07:08:45;3.20;72.70
46488;DHT22;32202;48.780;9.204;2023-03-01T07:11:10;3.20;72.00
46488;DHT22;32202;48.780;9.204;2023-03-01T07:13:35;3.00;72.50
46488;DHT22;32202;48.780;9.204;2023-03-01T07:16:01;3.10;72.20
46488;DHT22;32202;48.780;9.204;2023-03-01T07:18:26;3.00;72.40
46488;DHT22;32202;48.780;9.204;2023-03-01T07:20:52;2.90;72.60
46488;DHT22;32202;48.780;9.204;2023-03-01T07:23:17;2.70;73.20
46488;DHT22;32202;48.780;9.204;2023-03-01T07:25:43;2.70;73.20
46488;DHT22;32202;48.780;9.204;2023-03-01T07:28:09;2.80;73.00
46488;DHT22;32202;48.780;9.204;2023-03-01T07:30:34;2.90;73.30
46488;DHT22;32202;48.780;9.204;2023-03-01T07:33:00;2.90;72.90
46488;DHT22;32202;48.780;9.204;2023-03-01T07:35:25;3.00;72.60
46488;DHT22;32202;48.780;9.204;2023-03-01T07:37:51;3.00;72.40
46488;DHT22;32202;48.780;9.204;2023-03-01T07:40:17;3.10;72.50
46488;DHT22;32202;48.780;9.204;2023-03-01T07:42:42;3.20;72.00
46488;DHT22;32202;48.780;9.204;2023-03-01T07:45:08;3.30;71.70
46488;DHT22;32202;48.780;9.204;2023-03-01T07:47:34;3.70;71.20
46488;DHT22;32202;48.780;9.204;2023-03-01T07:49:59;5.00;67.20
46488;DHT22;32202;48.780;9.204;2023-03-01T07:52:26;7.00;61.60
46488;DHT22;32202;48.780;9.204;2023-03-01T07:54:51;9.00;55.70
46488;DHT22;32202;48.780;9.204;2023-03-01T07:57:17;10.90;50.60
46488;DHT22;32202;48.780;9.204;2023-03-01T07:59:42;12.50;46.70
46488;DHT22;32202;48.780;9.204;2023-03-01T08:02:08;13.80;43.90
46488;DHT22;32202;48.780;9.204;2023-03-01T08:04:34;14.80;41.80
46488;DHT22;32202;48.780;9.204;2023-03-01T08:07:00;15.50;40.00
46488;DHT22;32202;48.780;9.204;2023-03-01T08:09:25;16.20;39.30
46488;DHT22;32202;48.780;9.204;2023-03-01T08:11:50;16.40;38.60
46488;DHT22;32202;48.780;9.204;2023-03-01T08:14:16;17.00;37.70
46488;DHT22;32202;48.780;9.204;2023-03-01T08:16:41;17.20;37.10
46488;DHT22;32202;48.780;9.204;2023-03-01T08:19:08;17.70;36.60
46488;DHT22;32202;48.780;9.204;2023-03-01T08:21:33;18.20;35.70
46488;DHT22;32202;48.780;9.204;2023-03-01T08:24:02;18.60;35.00
46488;DHT22;32202;48.780;9.204;2023-03-01T08:26:28;18.80;35.30
46488;DHT22;32202;48.780;9.204;2023-03-01T08:28:53;19.20;34.40
46488;DHT22;32202;48.780;9.204;2023-03-01T08:31:22;19.40;33.90
46488;DHT22;32202;48.780;9.204;2023-03-01T08:33:48;19.70;33.60
46488;DHT22;32202;48.780;9.204;2023-03-01T08:36:17;19.80;33.20
46488;DHT22;32202;48.780;9.204;2023-03-01T08:38:42;20.00;33.00
46488;DHT22;32202;48.780;9.204;2023-03-01T08:41:08;20.20;32.60
46488;DHT22;32202;48.780;9.204;2023-03-01T08:43:34;20.40;32.40
46488;DHT22;32202;48.780;9.204;2023-03-01T08:45:59;20.50;32.20
46488;DHT22;32202;48.780;9.204;2023-03-01T08:48:26;20.90;31.90
46488;DHT22;32202;48.780;9.204;2023-03-01T08:50:52;21.30;31.40
46488;DHT22;32202;48.780;9.204;2023-03-01T08:53:17;21.40;31.20
46488;DHT22;32202;48.780;9.204;2023-03-01T08:55:43;21.80;31.00
46488;DHT22;32202;48.780;9.204;2023-03-01T08:58:08;22.10;31.20
46488;DHT22;32202;48.780;9.204;2023-03-01T09:00:34;22.30;30.40
46488;DHT22;32202;48.780;9.204;2023-03-01T09:03:00;22.50;30.30
46488;DHT22;32202;48.780;9.204;2023-03-01T09:05:25;22.80;29.90
46488;DHT22;32202;48.780;9.204;2023-03-01T09:07:51;23.10;29.80
46488;DHT22;32202;48.780;9.204;2023-03-01T09:10:16;23.40;29.50
46488;DHT22;32202;48.780;9.204;2023-03-01T09:12:42;23.70;29.40
46488;DHT22;32202;48.780;9.204;2023-03-01T09:15:08;24.10;29.20
46488;DHT22;32202;48.780;9.204;2023-03-01T09:17:33;24.20;29.00
46488;DHT22;32202;48.780;9.204;2023-03-01T09:19:59;24.10;29.00
46488;DHT22;32202;48.780;9.204;2023-03-01T09:22:25;24.10;29.00
46488;DHT22;32202;48.780;9.204;2023-03-01T09:24:50;24.70;28.70
46488;DHT22;32202;48.780;9.204;2023-03-01T09:27:16;24.80;28.70
46488;DHT22;32202;48.780;9.204;2023-03-01T09:29:44;25.30;28.30
46488;DHT22;32202;48.780;9.204;2023-03-01T09:32:09;25.80;28.10
46488;DHT22;32202;48.780;9.204;2023-03-01T09:34:35;25.60;28.10
46488;DHT22;32202;48.780;9.204;2023-03-01T09:37:20;25.50;28.00
46488;DHT22;32202;48.780;9.204;2023-03-01T09:39:46;25.50;28.00
46488;DHT22;32202;48.780;9.204;2023-03-01T09:42:12;26.00;28.00
46488;DHT22;32202;48.780;9.204;2023-03-01T09:44:38;25.90;28.10
46488;DHT22;32202;48.780;9.204;2023-03-01T09:47:05;26.40;27.80
46488;DHT22;32202;48.780;9.204;2023-03-01T09:49:31;26.80;27.70
46488;DHT22;32202;48.780;9.204;2023-03-01T09:51:59;26.60;27.60
46488;DHT22;32202;48.780;9.204;2023-03-01T09:54:24;27.30;27.40
46488;DHT22;32202;48.780;9.204;2023-03-01T09:56:57;26.90;27.30
46488;DHT22;32202;48.780;9.204;2023-03-01T09:59:34;26.80;27.10
46488;DHT22;32202;48.780;9.204;2023-03-01T10:09:53;25.70;27.40
46488;DHT22;32202;48.780;9.204;2023-03-01T10:12:20;25.70;27.50
46488;DHT22;32202;48.780;9.204;2023-03-01T10:15:22;25.80;27.50
46488;DHT22;32202;48.780;9.204;2023-03-01T10:20:24;26.30;27.40
46488;DHT22;32202;48.780;9.204;2023-03-01T10:22:50;26.70;27.40
46488;DHT22;32202;48.780;9.204;2023-03-01T10:25:23;27.40;27.00
46488;DHT22;32202;48.780;9.204;2023-03-01T10:27:55;27.00;26.90
46488;DHT22;32202;48.780;9.204;2023-03-01T10:30:35;26.70;27.10
46488;DHT22;32202;48.780;9.204;2023-03-01T10:33:03;27.00;27.10
46488;DHT22;32202;48.780;9.204;2023-03-01T10:35:31;27.80;26.90
46488;DHT22;32202;48.780;9.204;2023-03-01T10:37:58;28.30;26.80
46488;DHT22;32202;48.780;9.204;2023-03-01T10:40:27;29.20;26.40
46488;DHT22;32202;48.780;9.204;2023-03-01T10:42:53;29.20;26.40
46488;DHT22;32202;48.780;9.204;2023-03-01T10:47:44;29.40;26.10
46488;DHT22;32202;48.780;9.204;2023-03-01T10:50:19;28.90;26.10
46488;DHT22;32202;48.780;9.204;2023-03-01T10:52:55;28.50;26.40
46488;DHT22;32202;48.780;9.204;2023-03-01T10:55:37;28.60;26.20
46488;DHT22;32202;48.780;9.204;2023-03-01T10:58:07;28.70;26.40
46488;DHT22;32202;48.780;9.204;2023-03-01T11:00:33;29.50;26.30
46488;DHT22;32202;48.780;9.204;2023-03-01T11:03:11;28.80;26.20
46488;DHT22;32202;48.780;9.204;2023-03-01T11:05:37;28.80;26.30
46488;DHT22;32202;48.780;9.204;2023-03-01T11:08:14;27.60;26.40
46488;DHT22;32202;48.780;9.204;2023-03-01T11:10:40;26.40;27.30
46488;DHT22;32202;48.780;9.204;2023-03-01T11:13:07;28.00;26.80
46488;DHT22;32202;48.780;9.204;2023-03-01T11:15:33;28.20;26.50
46488;DHT22;32202;48.780;9.204;2023-03-01T11:17:59;29.10;27.00
46488;DHT22;32202;48.780;9.204;2023-03-01T11:20:25;29.30;26.20
46488;DHT22;32202;48.780;9.204;2023-03-01T11:22:56;30.20;26.20
46488;DHT22;32202;48.780;9.204;2023-03-01T11:25:27;31.10;26.00
46488;DHT22;32202;48.780;9.204;2023-03-01T11:27:54;31.70;25.60
46488;DHT22;32202;48.780;9.204;2023-03-01T11:30:29;32.10;25.50
46488;DHT22;32202;48.780;9.204;2023-03-01T11:35:37;32.20;25.50
46488;DHT22;32202;48.780;9.204;2023-03-01T11:38:15;32.10;25.40
46488;DHT22;32202;48.780;9.204;2023-03-01T11:40:43;31.90;25.50
46488;DHT22;32202;48.780;9.204;2023-03-01T11:51:14;31.50;25.50
46488;DHT22;32202;48.780;9.204;2023-03-01T11:53:50;29.80;25.90
46488;DHT22;32202;48.780;9.204;2023-03-01T11:56:31;30.60;25.90
46488;DHT22;32202;48.780;9.204;2023-03-01T12:06:55;31.70;25.50
46488;DHT22;32202;48.780;9.204;2023-03-01T12:17:01;31.20;25.60
46488;DHT22;32202;48.780;9.204;2023-03-01T12:29:40;32.50;25.30
46488;DHT22;32202;48.780;9.204;2023-03-01T12:39:53;31.00;25.70
46488;DHT22;32202;48.780;9.204;2023-03-01T12:42:33;30.90;25.70
46488;DHT22;32202;48.780;9.204;2023-03-01T12:45:16;31.10;25.70
46488;DHT22;32202;48.780;9.204;2023-03-01T12:48:04;31.10;25.70
46488;DHT22;32202;48.780;9.204;2023-03-01T12:50:41;30.90;25.90
46488;DHT22;32202;48.780;9.204;2023-03-01T12:53:15;30.50;25.90
46488;DHT22;32202;48.780;9.204;2023-03-01T12:55:42;30.00;25.90
46488;DHT22;32202;48.780;9.204;2023-03-01T12:58:15;29.80;26.20
46488;DHT22;32202;48.780;9.204;2023-03-01T13:06:07;29.50;26.40
46488;DHT22;32202;48.780;9.204;2023-03-01T13:08:50;29.60;26.20
46488;DHT22;32202;48.780;9.204;2023-03-01T13:11:22;29.60;26.30
46488;DHT22;32202;48.780;9.204;2023-03-01T13:13:48;28.90;26.30
46488;DHT22;32202;48.780;9.204;2023-03-01T13:16:40;29.00;26.40
46488;DHT22;32202;48.780;9.204;2023-03-01T13:19:10;28.90;26.40
46488;DHT22;32202;48.780;9.204;2023-03-01T13:21:36;29.40;26.50
46488;DHT22;32202;48.780;9.204;2023-03-01T13:24:02;28.80;26.40
46488;DHT22;32202;48.780;9.204;2023-03-01T13:26:27;27.90;27.00
46488;DHT22;32202;48.780;9.204;2023-03-01T13:28:53;28.00;26.80
46488;DHT22;32202;48.780;9.204;2023-03-01T13:36:48;27.70;27.00
46488;DHT22;32202;48.780;9.204;2023-03-01T13:41:54;28.20;26.80
46488;DHT22;32202;48.780;9.204;2023-03-01T13:46:52;28.00;26.80
46488;DHT22;32202;48.780;9.204;2023-03-01T13:49:19;27.20;27.10
46488;DHT22;32202;48.780;9.204;2023-03-01T13:51:50;26.60;27.40
46488;DHT22;32202;48.780;9.204;2023-03-01T13:54:17;26.20;27.70
46488;DHT22;32202;48.780;9.204;2023-03-01T13:56:46;26.40;27.80
46488;DHT22;32202;48.780;9.204;2023-03-01T13:59:15;26.20;27.70
46488;DHT22;32202;48.780;9.204;2023-03-01T14:01:41;25.80;27.80
46488;DHT22;32202;48.780;9.204;2023-03-01T14:04:18;25.70;28.20
46488;DHT22;32202;48.780;9.204;2023-03-01T14:06:44;25.40;28.10
46488;DHT22;32202;48.780;9.204;2023-03-01T14:09:23;24.50;28.60
46488;DHT22;32202;48.780;9.204;2023-03-01T14:19:39;23.50;29.40
46488;DHT22;32202;48.780;9.204;2023-03-01T14:22:23;23.60;29.40
46488;DHT22;32202;48.780;9.204;2023-03-01T14:27:17;22.90;29.80
46488;DHT22;32202;48.780;9.204;2023-03-01T14:29:43;22.50;30.10
46488;DHT22;32202;48.780;9.204;2023-03-01T14:32:17;22.30;30.30
46488;DHT22;32202;48.780;9.204;2023-03-01T14:34:44;22.30;30.40
46488;DHT22;32202;48.780;9.204;2023-03-01T14:37:11;22.20;30.70
46488;DHT22;32202;48.780;9.204;2023-03-01T14:39:42;22.00;30.70
46488;DHT22;32202;48.780;9.204;2023-03-01T14:42:08;21.60;31.20
46488;DHT22;32202;48.780;9.204;2023-03-01T14:44:33;21.40;31.40
46488;DHT22;32202;48.780;9.204;2023-03-01T14:47:02;21.30;31.50
46488;DHT22;32202;48.780;9.204;2023-03-01T14:49:29;21.20;31.90
46488;DHT22;32202;48.780;9.204;2023-03-01T14:52:05;20.90;32.10
46488;DHT22;32202;48.780;9.204;2023-03-01T14:54:41;20.70;32.10
46488;DHT22;32202;48.780;9.204;2023-03-01T14:57:42;20.50;32.40
46488;DHT22;32202;48.780;9.204;2023-03-01T15:00:00;20.30;32.60
46488;DHT22;32202;48.780;9.204;2023-03-01T15:02:29;20.10;32.80
46488;DHT22;32202;48.780;9.204;2023-03-01T15:04:56;19.70;33.30
46488;DHT22;32202;48.780;9.204;2023-03-01T15:07:23;19.50;33.70
46488;DHT22;32202;48.780;9.204;2023-03-01T15:09:49;19.30;33.80
46488;DHT22;32202;48.780;9.204;2023-03-01T15:14:53;18.90;34.50
46488;DHT22;32202;48.780;9.204;2023-03-01T15:19:56;18.40;35.00
46488;DHT22;32202;48.780;9.204;2023-03-01T15:22:21;18.10;35.60
46488;DHT22;32202;48.780;9.204;2023-03-01T15:24:48;17.80;35.80
46488;DHT22;32202;48.780;9.204;2023-03-01T15:27:18;17.70;36.10
46488;DHT22;32202;48.780;9.204;2023-03-01T15:29:53;17.50;36.40
46488;DHT22;32202;48.780;9.204;2023-03-01T15:32:32;17.30;36.50
46488;DHT22;32202;48.780;9.204;2023-03-01T15:34:58;17.30;36.90
46488;DHT22;32202;48.780;9.204;2023-03-01T15:37:40;17.20;36.70
46488;DHT22;32202;48.780;9.204;2023-03-01T15:40:48;17.20;36.80
46488;DHT22;32202;48.780;9.204;2023-03-01T15:43:04;16.90;36.80
46488;DHT22;32202;48.780;9.204;2023-03-01T15:45:31;16.60;37.20
46488;DHT22;32202;48.780;9.204;2023-03-01T15:48:17;16.20;37.80
46488;DHT22;32202;48.780;9.204;2023-03-01T15:50:44;15.90;38.00
46488;DHT22;32202;48.780;9.204;2023-03-01T15:53:19;15.70;38.40
46488;DHT22;32202;48.780;9.204;2023-03-01T15:55:44;15.40;38.70
46488;DHT22;32202;48.780;9.204;2023-03-01T15:58:13;15.40;38.90
46488;DHT22;32202;48.780;9.204;2023-03-01T16:00:39;15.30;38.90
46488;DHT22;32202;48.780;9.204;2023-03-01T16:03:05;15.10;38.90
46488;DHT22;32202;48.780;9.204;2023-03-01T16:05:32;14.90;39.60
46488;DHT22;32202;48.780;9.204;2023-03-01T16:07:59;14.60;39.60
46488;DHT22;32202;48.780;9.204;2023-03-01T16:10:25;14.30;40.00
46488;DHT22;32202;48.780;9.204;2023-03-01T16:12:51;13.80;40.70
46488;DHT22;32202;48.780;9.204;2023-03-01T16:15:27;13.40;41.30
46488;DHT22;32202;48.780;9.204;2023-03-01T16:17:53;13.10;41.80
46488;DHT22;32202;48.780;9.204;2023-03-01T16:20:19;12.70;42.30
46488;DHT22;32202;48.780;9.204;2023-03-01T16:22:45;12.40;43.20
46488;DHT22;32202;48.780;9.204;2023-03-01T16:25:11;12.20;43.30
46488;DHT22;32202;48.780;9.204;2023-03-01T16:27:37;11.80;43.70
46488;DHT22;32202;48.780;9.204;2023-03-01T16:30:04;11.60;44.20
46488;DHT22;32202;48.780;9.204;2023-03-01T16:32:29;11.30;44.60
46488;DHT22;32202;48.780;9.204;2023-03-01T16:34:55;11.00;45.40
46488;DHT22;32202;48.780;9.204;2023-03-01T16:37:20;10.70;46.00
46488;DHT22;32202;48.780;9.204;2023-03-01T16:39:47;10.50;46.40
46488;DHT22;32202;48.780;9.204;2023-03-01T16:42:14;10.40;47.00
46488;DHT22;32202;48.780;9.204;2023-03-01T16:44:41;10.20;47.40
46488;DHT22;32202;48.780;9.204;2023-03-01T16:47:06;10.00;47.80
46488;DHT22;32202;48.780;9.204;2023-03-01T16:49:32;9.90;48.20
46488;DHT22;32202;48.780;9.204;2023-03-01T16:51:57;9.70;48.50
46488;DHT22;32202;48.780;9.204;2023-03-01T16:54:24;9.60;49.00
46488;DHT22;32202;48.780;9.204;2023-03-01T16:56:49;9.50;49.00
46488;DHT22;32202;48.780;9.204;2023-03-01T16:59:15;9.40;49.30
46488;DHT22;32202;48.780;9.204;2023-03-01T17:01:40;9.30;49.40
46488;DHT22;32202;48.780;9.204;2023-03-01T17:04:06;9.20;49.80
46488;DHT22;32202;48.780;9.204;2023-03-01T17:06:35;9.10;50.00
46488;DHT22;32202;48.780;9.204;2023-03-01T17:09:01;9.00;50.30
46488;DHT22;32202;48.780;9.204;2023-03-01T17:11:27;9.00;50.60
46488;DHT22;32202;48.780;9.204;2023-03-01T17:13:52;8.90;50.90
46488;DHT22;32202;48.780;9.204;2023-03-01T17:16:18;8.90;50.90
46488;DHT22;32202;48.780;9.204;2023-03-01T17:18:44;8.80;51.30
46488;DHT22;32202;48.780;9.204;2023-03-01T17:21:10;8.80;51.60